Time,TemperatureF,DewpointF,PressureIn,WindDirection,WindDirectionDegrees,WindSpeedMPH,WindSpeedGustMPH,Humidity,HourlyPrecipIn,Conditions,Clouds,dailyrainin,SoftwareType,DateUTC
2013-02-04 00:00:00,19.2,13.2,29.91,SSW,212,3.0,4.0,77,0.00,,,0.00,VWS V14.01,2013-02-04 05:00:00,
2013-02-04 00:05:00,19.2,13.2,29.91,SSW,212,1.0,4.0,77,0.00,,,0.00,VWS V14.01,2013-02-04 05:05:00,
2013-02-04 00:12:00,19.2,13.2,29.91,SSW,212,1.0,3.0,77,0.00,,,0.00,VWS V14.01,2013-02-04 05:12:00,
2013-02-04 00:15:00,19.4,13.4,29.91,SSW,213,5.0,7.0,77,0.00,,,0.00,VWS V14.01,2013-02-04 05:15:00,
2013-02-04 00:25:00,19.4,13.4,29.91,SSW,213,5.0,7.0,77,0.00,,,0.00,VWS V14.01,2013-02-04 05:25:00,
2013-02-04 00:30:00,19.5,13.5,29.91,SW,216,2.0,7.0,77,0.00,,,0.00,VWS V14.01,2013-02-04 05:30:00,
2013-02-04 00:35:00,19.5,13.8,29.91,SW,216,2.0,6.0,78,0.00,,,0.00,VWS V14.01,2013-02-04 05:35:00,
2013-02-04 00:45:00,19.5,13.8,29.91,SW,216,3.0,5.0,78,0.00,,,0.00,VWS V14.01,2013-02-04 05:45:00,
2013-02-04 00:50:00,19.5,14.1,29.91,SW,216,3.0,4.0,79,0.00,,,0.00,VWS V14.01,2013-02-04 05:50:00,
2013-02-04 00:55:00,19.4,14.0,29.91,SW,216,2.0,3.0,79,0.00,,,0.00,VWS V14.01,2013-02-04 05:55:00,
2013-02-04 01:00:00,19.4,14.0,29.90,SW,216,0.0,3.0,79,0.00,,,0.00,VWS V14.01,2013-02-04 06:00:00,
2013-02-04 01:10:00,19.4,14.2,29.90,SW,216,3.0,5.0,80,0.00,,,0.00,VWS V14.01,2013-02-04 06:10:00,
2013-02-04 01:15:00,19.4,14.2,29.90,SW,216,3.0,6.0,80,0.00,,,0.00,VWS V14.01,2013-02-04 06:15:00,
2013-02-04 01:20:00,19.5,14.4,29.90,SW,216,2.0,6.0,80,0.00,,,0.00,VWS V14.01,2013-02-04 06:20:00,
2013-02-04 01:25:00,19.5,14.6,29.90,SW,216,1.0,6.0,81,0.00,,,0.00,VWS V14.01,2013-02-04 06:25:00,
2013-02-04 01:30:00,19.7,14.8,29.91,SW,216,3.0,6.0,81,0.00,,,0.00,VWS V14.01,2013-02-04 06:30:00,
2013-02-04 01:40:00,19.7,15.1,29.91,SW,216,1.0,5.0,82,0.00,,,0.00,VWS V14.01,2013-02-04 06:40:00,
2013-02-04 01:50:00,19.7,15.1,29.90,SW,216,2.0,2.0,82,0.00,,,0.00,VWS V14.01,2013-02-04 06:50:00,
2013-02-04 01:55:00,19.7,15.4,29.90,SW,216,1.0,3.0,83,0.00,,,0.00,VWS V14.01,2013-02-04 06:55:00,
2013-02-04 02:00:00,19.7,15.4,29.90,SW,216,2.0,3.0,83,0.00,,,0.00,VWS V14.01,2013-02-04 07:00:00,
2013-02-04 02:05:00,19.9,15.9,29.90,SW,216,3.0,4.0,84,0.00,,,0.00,VWS V14.01,2013-02-04 07:05:00,
2013-02-04 02:10:00,20.0,15.9,29.90,SW,216,3.0,3.0,84,0.00,,,0.00,VWS V14.01,2013-02-04 07:10:00,
2013-02-04 02:20:00,20.3,16.5,29.89,SW,216,0.0,2.0,85,0.00,,,0.00,VWS V14.01,2013-02-04 07:20:00,
2013-02-04 02:25:00,20.5,16.7,29.89,SW,216,2.0,2.0,85,0.00,,,0.00,VWS V14.01,2013-02-04 07:25:00,
2013-02-04 02:30:00,20.5,16.7,29.89,SW,216,1.0,5.0,85,0.00,,,0.00,VWS V14.01,2013-02-04 07:30:00,
2013-02-04 02:35:00,20.6,17.1,29.89,SW,216,3.0,5.0,86,0.00,,,0.00,VWS V14.01,2013-02-04 07:35:00,
2013-02-04 02:40:00,20.8,17.3,29.89,SW,216,3.0,3.0,86,0.00,,,0.00,VWS V14.01,2013-02-04 07:40:00,
2013-02-04 02:45:00,20.8,17.3,29.89,SW,216,2.0,4.0,86,0.00,,,0.00,VWS V14.01,2013-02-04 07:45:00,
2013-02-04 02:55:00,21.0,17.5,29.89,SW,216,1.0,5.0,86,0.00,,,0.00,VWS V14.01,2013-02-04 07:55:00,
2013-02-04 03:00:00,21.0,17.5,29.89,SW,216,2.0,3.0,86,0.00,,,0.00,VWS V14.01,2013-02-04 08:00:00,
2013-02-04 03:05:00,21.1,17.6,29.89,SW,216,2.0,5.0,86,0.00,,,0.00,VWS V14.01,2013-02-04 08:05:00,
2013-02-04 03:15:00,21.1,17.6,29.88,SW,216,3.0,6.0,86,0.00,,,0.00,VWS V14.01,2013-02-04 08:15:00,
2013-02-04 03:20:00,21.1,17.6,29.88,SW,216,3.0,6.0,86,0.00,,,0.00,VWS V14.01,2013-02-04 08:20:00,
2013-02-04 03:26:00,21.3,17.8,29.88,SW,216,2.0,6.0,86,0.00,,,0.00,VWS V14.01,2013-02-04 08:26:00,
2013-02-04 03:35:00,21.3,17.8,29.88,SW,216,2.0,4.0,86,0.00,,,0.00,VWS V14.01,2013-02-04 08:35:00,
2013-02-04 03:40:00,21.3,18.0,29.88,SW,216,1.0,4.0,87,0.00,,,0.00,VWS V14.01,2013-02-04 08:40:00,
2013-02-04 03:45:00,21.3,18.0,29.87,SW,216,2.0,3.0,87,0.00,,,0.00,VWS V14.01,2013-02-04 08:45:00,
2013-02-04 03:50:00,21.3,18.0,29.87,SW,216,1.0,5.0,87,0.00,,,0.00,VWS V14.01,2013-02-04 08:50:00,
2013-02-04 04:00:00,21.4,18.1,29.85,SW,216,0.0,1.0,87,0.00,,,0.00,VWS V14.01,2013-02-04 09:00:00,
2013-02-04 04:05:00,21.4,18.1,29.85,SW,216,0.0,1.0,87,0.00,,,0.00,VWS V14.01,2013-02-04 09:05:00,
2013-02-04 04:11:00,21.4,18.1,29.85,SW,216,0.0,2.0,87,0.00,,,0.00,VWS V14.01,2013-02-04 09:11:00,
2013-02-04 04:16:00,21.4,18.1,29.84,SW,216,1.0,2.0,87,0.00,,,0.00,VWS V14.01,2013-02-04 09:16:00,
2013-02-04 04:21:00,21.4,18.1,29.84,SW,216,0.0,2.0,87,0.00,,,0.00,VWS V14.01,2013-02-04 09:21:00,
2013-02-04 04:30:00,21.4,18.1,29.83,SW,216,0.0,3.0,87,0.00,,,0.00,VWS V14.01,2013-02-04 09:30:00,
2013-02-04 04:35:00,21.4,18.4,29.83,SW,216,0.0,2.0,88,0.00,,,0.00,VWS V14.01,2013-02-04 09:35:00,
2013-02-04 04:40:00,21.6,18.6,29.83,SW,216,1.0,2.0,88,0.00,,,0.00,VWS V14.01,2013-02-04 09:40:00,
2013-02-04 04:50:00,21.4,18.4,29.83,SSE,158,1.0,3.0,88,0.00,,,0.00,VWS V14.01,2013-02-04 09:50:00,
2013-02-04 04:55:00,21.4,18.4,29.83,SSE,158,2.0,3.0,88,0.00,,,0.00,VWS V14.01,2013-02-04 09:55:00,
2013-02-04 05:00:00,21.4,18.4,29.83,SSE,157,0.0,2.0,88,0.00,,,0.00,VWS V14.01,2013-02-04 10:00:00,
2013-02-04 05:05:00,21.6,18.6,29.83,SSE,147,0.0,5.0,88,0.00,,,0.00,VWS V14.01,2013-02-04 10:05:00,
2013-02-04 05:10:00,21.6,18.6,29.83,SE,137,0.0,5.0,88,0.00,,,0.00,VWS V14.01,2013-02-04 10:10:00,
2013-02-04 05:15:00,21.6,18.6,29.83,SE,137,1.0,3.0,88,0.00,,,0.00,VWS V14.01,2013-02-04 10:15:00,
2013-02-04 05:25:00,21.6,18.6,29.83,SE,137,1.0,2.0,88,0.00,,,0.00,VWS V14.01,2013-02-04 10:25:00,
2013-02-04 05:30:00,21.8,18.8,29.82,SE,136,2.0,3.0,88,0.00,,,0.00,VWS V14.01,2013-02-04 10:30:00,
2013-02-04 05:35:00,21.8,18.8,29.82,SE,136,0.0,2.0,88,0.00,,,0.00,VWS V14.01,2013-02-04 10:35:00,
2013-02-04 05:40:00,21.8,18.8,29.82,SE,136,1.0,2.0,88,0.00,,,0.00,VWS V14.01,2013-02-04 10:40:00,
2013-02-04 05:45:00,21.8,18.8,29.81,SE,137,0.0,4.0,88,0.00,,,0.00,VWS V14.01,2013-02-04 10:45:00,
2013-02-04 05:50:00,21.8,18.8,29.81,SE,134,0.0,3.0,88,0.00,,,0.00,VWS V14.01,2013-02-04 10:50:00,
2013-02-04 05:56:00,21.8,18.8,29.81,SE,136,2.0,3.0,88,0.00,,,0.00,VWS V14.01,2013-02-04 10:56:00,
2013-02-04 06:05:00,21.8,18.8,29.81,SE,138,0.0,3.0,88,0.00,,,0.00,VWS V14.01,2013-02-04 11:05:00,
2013-02-04 06:15:00,21.6,18.6,29.80,ESE,123,2.0,6.0,88,0.00,,,0.00,VWS V14.01,2013-02-04 11:15:00,
2013-02-04 06:20:00,21.8,18.8,29.80,SE,124,2.0,3.0,88,0.00,,,0.00,VWS V14.01,2013-02-04 11:20:00,
2013-02-04 06:25:00,21.6,18.6,29.80,SE,126,0.0,7.0,88,0.00,,,0.00,VWS V14.01,2013-02-04 11:25:00,
2013-02-04 06:30:00,21.6,18.6,29.80,SE,136,1.0,6.0,88,0.00,,,0.00,VWS V14.01,2013-02-04 11:30:00,
2013-02-04 06:35:00,21.6,18.6,29.80,SE,136,0.0,4.0,88,0.00,,,0.00,VWS V14.01,2013-02-04 11:35:00,
2013-02-04 06:45:00,21.8,19.1,29.80,SE,128,1.0,5.0,89,0.00,,,0.00,VWS V14.01,2013-02-04 11:45:00,
2013-02-04 06:50:00,21.8,18.8,29.80,ESE,121,2.0,5.0,88,0.00,,,0.00,VWS V14.01,2013-02-04 11:50:00,
2013-02-04 06:55:00,21.8,18.8,29.80,ESE,121,4.0,5.0,88,0.00,,,0.00,VWS V14.01,2013-02-04 11:55:00,
2013-02-04 07:00:00,21.8,18.8,29.79,ESE,120,2.0,6.0,88,0.00,,,0.00,VWS V14.01,2013-02-04 12:00:00,
2013-02-04 07:05:00,21.8,19.1,29.79,ESE,120,2.0,6.0,89,0.00,,,0.00,VWS V14.01,2013-02-04 12:05:00,
2013-02-04 07:10:00,21.8,18.8,29.79,ESE,119,1.0,3.0,88,0.00,,,0.00,VWS V14.01,2013-02-04 12:10:00,
2013-02-04 07:20:00,21.8,18.8,29.79,ESE,117,0.0,5.0,88,0.00,,,0.00,VWS V14.01,2013-02-04 12:20:00,
2013-02-04 07:25:00,21.8,18.8,29.79,ESE,117,1.0,3.0,88,0.00,,,0.00,VWS V14.01,2013-02-04 12:25:00,
2013-02-04 07:30:00,21.8,18.8,29.78,ESE,120,4.0,4.0,88,0.00,,,0.00,VWS V14.01,2013-02-04 12:30:00,
2013-02-04 07:40:00,21.8,18.8,29.78,SSE,160,1.0,7.0,88,0.00,,,0.00,VWS V14.01,2013-02-04 12:40:00,
2013-02-04 07:45:00,21.8,18.5,29.78,SE,128,3.0,7.0,87,0.00,,,0.00,VWS V14.01,2013-02-04 12:45:00,
2013-02-04 07:51:00,21.8,18.5,29.78,ESE,114,5.0,5.0,87,0.00,,,0.00,VWS V14.01,2013-02-04 12:51:00,
2013-02-04 08:00:00,21.8,18.3,29.77,ESE,119,2.0,6.0,86,0.00,,,0.00,VWS V14.01,2013-02-04 13:00:00,
2013-02-04 08:10:00,21.8,18.3,29.77,ESE,113,2.0,6.0,86,0.00,,,0.00,VWS V14.01,2013-02-04 13:10:00,
2013-02-04 08:15:00,21.9,18.4,29.77,ESE,116,0.0,7.0,86,0.00,,,0.00,VWS V14.01,2013-02-04 13:15:00,
2013-02-04 08:20:00,21.9,18.1,29.77,ESE,116,5.0,6.0,85,0.00,,,0.00,VWS V14.01,2013-02-04 13:20:00,
2013-02-04 08:30:00,22.1,18.0,29.77,ESE,109,5.0,6.0,84,0.00,,,0.00,VWS V14.01,2013-02-04 13:30:00,
2013-02-04 08:35:00,22.1,17.7,29.77,ESE,109,5.0,8.0,83,0.00,,,0.00,VWS V14.01,2013-02-04 13:35:00,
2013-02-04 08:40:00,22.2,17.8,29.77,ESE,106,3.0,7.0,83,0.00,,,0.00,VWS V14.01,2013-02-04 13:40:00,
2013-02-04 08:45:00,22.2,17.5,29.77,ESE,102,4.0,6.0,82,0.00,,,0.00,VWS V14.01,2013-02-04 13:45:00,
2013-02-04 08:50:00,22.4,18.0,29.77,East,96,4.0,6.0,83,0.00,,,0.00,VWS V14.01,2013-02-04 13:50:00,
2013-02-04 08:55:00,22.7,18.0,29.77,East,88,2.0,7.0,82,0.00,,,0.00,VWS V14.01,2013-02-04 13:55:00,
2013-02-04 09:00:00,23.0,18.3,29.77,East,90,6.0,7.0,82,0.00,,,0.00,VWS V14.01,2013-02-04 14:00:00,
2013-02-04 09:05:00,22.7,18.0,29.77,East,90,5.0,6.0,82,0.00,,,0.00,VWS V14.01,2013-02-04 14:05:00,
2013-02-04 09:10:00,22.9,18.2,29.77,East,89,5.0,6.0,82,0.00,,,0.00,VWS V14.01,2013-02-04 14:10:00,
2013-02-04 09:15:00,22.7,17.8,29.77,East,89,3.0,5.0,81,0.00,,,0.00,VWS V14.01,2013-02-04 14:15:00,
2013-02-04 09:20:00,22.9,18.0,29.77,East,85,4.0,7.0,81,0.00,,,0.00,VWS V14.01,2013-02-04 14:20:00,
2013-02-04 09:25:00,23.0,18.0,29.77,East,83,5.0,6.0,81,0.00,,,0.00,VWS V14.01,2013-02-04 14:25:00,
2013-02-04 09:30:00,23.2,18.2,29.76,ENE,78,7.0,7.0,81,0.00,,,0.00,VWS V14.01,2013-02-04 14:30:00,
2013-02-04 09:35:00,23.2,18.2,29.76,East,85,6.0,7.0,81,0.00,,,0.00,VWS V14.01,2013-02-04 14:35:00,
2013-02-04 09:40:00,23.2,18.0,29.76,East,92,3.0,7.0,80,0.00,,,0.00,VWS V14.01,2013-02-04 14:40:00,
2013-02-04 09:45:00,23.3,18.1,29.76,East,89,5.0,7.0,80,0.00,,,0.00,VWS V14.01,2013-02-04 14:45:00,
2013-02-04 09:55:00,23.8,18.2,29.76,East,93,3.0,6.0,79,0.00,,,0.00,VWS V14.01,2013-02-04 14:55:00,
2013-02-04 10:00:00,23.8,18.2,29.75,ESE,106,3.0,7.0,79,0.00,,,0.00,VWS V14.01,2013-02-04 15:00:00,
2013-02-04 10:05:00,23.6,17.8,29.75,SE,124,6.0,10.0,78,0.00,,,0.00,VWS V14.01,2013-02-04 15:05:00,
2013-02-04 10:10:00,23.6,17.8,29.75,ESE,113,3.0,8.0,78,0.00,,,0.00,VWS V14.01,2013-02-04 15:10:00,
2013-02-04 10:15:00,23.8,18.0,29.75,ESE,112,3.0,5.0,78,0.00,,,0.00,VWS V14.01,2013-02-04 15:15:00,
2013-02-04 10:20:00,23.9,18.0,29.75,ESE,102,2.0,7.0,78,0.00,,,0.00,VWS V14.01,2013-02-04 15:20:00,
2013-02-04 10:25:00,24.2,18.0,29.75,ESE,106,3.0,6.0,77,0.00,,,0.00,VWS V14.01,2013-02-04 15:25:00,
2013-02-04 10:30:00,24.2,18.0,29.75,ESE,113,6.0,8.0,77,0.00,,,0.00,VWS V14.01,2013-02-04 15:30:00,
2013-02-04 10:40:00,24.2,17.7,29.75,ESE,112,5.0,7.0,76,0.00,,,0.00,VWS V14.01,2013-02-04 15:40:00,
2013-02-04 10:45:00,24.4,17.9,29.74,ESE,110,2.0,7.0,76,0.00,,,0.00,VWS V14.01,2013-02-04 15:45:00,
2013-02-04 10:50:00,24.4,17.9,29.74,East,100,5.0,7.0,76,0.00,,,0.00,VWS V14.01,2013-02-04 15:50:00,
2013-02-04 10:55:00,24.5,18.0,29.74,ESE,106,6.0,6.0,76,0.00,,,0.00,VWS V14.01,2013-02-04 15:55:00,
2013-02-04 11:05:00,24.5,18.0,29.73,ESE,110,6.0,7.0,76,0.00,,,0.00,VWS V14.01,2013-02-04 16:05:00,
2013-02-04 11:10:00,24.7,18.2,29.73,ESE,109,5.0,7.0,76,0.00,,,0.00,VWS V14.01,2013-02-04 16:10:00,
2013-02-04 11:15:00,24.8,18.3,29.73,ESE,110,5.0,8.0,76,0.00,,,0.00,VWS V14.01,2013-02-04 16:15:00,
2013-02-04 11:25:00,24.8,18.3,29.73,ESE,110,6.0,9.0,76,0.00,,,0.00,VWS V14.01,2013-02-04 16:25:00,
2013-02-04 11:30:00,25.0,18.5,29.73,ESE,113,4.0,7.0,76,0.00,,,0.00,VWS V14.01,2013-02-04 16:30:00,
2013-02-04 11:35:00,25.0,18.5,29.73,ESE,106,6.0,8.0,76,0.00,,,0.00,VWS V14.01,2013-02-04 16:35:00,
2013-02-04 11:41:00,25.3,18.8,29.73,ESE,112,3.0,8.0,76,0.00,,,0.00,VWS V14.01,2013-02-04 16:41:00,
2013-02-04 11:50:00,25.6,19.1,29.73,ESE,109,4.0,10.0,76,0.00,,,0.00,VWS V14.01,2013-02-04 16:50:00,
2013-02-04 11:55:00,25.4,18.9,29.73,ESE,117,1.0,8.0,76,0.00,,,0.00,VWS V14.01,2013-02-04 16:55:00,
2013-02-04 12:00:00,25.4,19.2,29.72,ESE,110,6.0,9.0,77,0.00,,,0.00,VWS V14.01,2013-02-04 17:00:00,
2013-02-04 12:05:00,25.3,19.1,29.72,ESE,112,6.0,8.0,77,0.00,,,0.00,VWS V14.01,2013-02-04 17:05:00,
2013-02-04 12:10:00,25.3,19.4,29.72,ESE,114,3.0,8.0,78,0.00,,,0.00,VWS V14.01,2013-02-04 17:10:00,
2013-02-04 12:15:00,25.3,19.7,29.72,ESE,120,7.0,8.0,79,0.00,,,0.00,VWS V14.01,2013-02-04 17:15:00,
2013-02-04 12:20:00,25.3,19.7,29.72,ESE,117,7.0,7.0,79,0.00,,,0.00,VWS V14.01,2013-02-04 17:20:00,
2013-02-04 12:25:00,25.4,20.1,29.72,ESE,114,5.0,7.0,80,0.00,,,0.00,VWS V14.01,2013-02-04 17:25:00,
2013-02-04 12:30:00,25.4,20.1,29.70,ESE,116,5.0,7.0,80,0.00,,,0.00,VWS V14.01,2013-02-04 17:30:00,
2013-02-04 12:40:00,26.1,21.1,29.70,ESE,114,2.0,4.0,81,0.00,,,0.00,VWS V14.01,2013-02-04 17:40:00,
2013-02-04 12:45:00,26.6,21.6,29.70,ESE,113,2.0,4.0,81,0.00,,,0.00,VWS V14.01,2013-02-04 17:45:00,
2013-02-04 12:55:00,27.3,22.2,29.70,ESE,114,3.0,5.0,81,0.00,,,0.00,VWS V14.01,2013-02-04 17:55:00,
2013-02-04 13:00:00,27.5,22.1,29.69,ESE,114,5.0,6.0,80,0.00,,OVC029,0.00,VWS V14.01,2013-02-04 18:00:00,
2013-02-04 13:05:00,27.6,22.0,29.69,ESE,117,5.0,7.0,79,0.00,,OVC029,0.00,VWS V14.01,2013-02-04 18:05:00,
2013-02-04 13:15:00,27.9,21.6,29.68,ESE,117,5.0,7.0,77,0.00,,OVC029,0.00,VWS V14.01,2013-02-04 18:15:00,
2013-02-04 13:20:00,27.9,21.0,29.68,ESE,119,2.0,7.0,75,0.00,,OVC029,0.00,VWS V14.01,2013-02-04 18:20:00,
2013-02-04 13:25:00,28.2,21.3,29.68,ESE,119,7.0,7.0,75,0.00,,OVC029,0.00,VWS V14.01,2013-02-04 18:25:00,
2013-02-04 13:30:00,28.1,20.9,29.68,SE,124,4.0,7.0,74,0.00,,OVC029,0.00,VWS V14.01,2013-02-04 18:30:00,
2013-02-04 13:40:00,28.4,21.2,29.68,ESE,113,3.0,5.0,74,0.01,,OVC029,0.01,VWS V14.01,2013-02-04 18:40:00,
2013-02-04 13:45:00,28.5,21.3,29.68,ESE,113,3.0,5.0,74,0.01,,OVC029,0.01,VWS V14.01,2013-02-04 18:45:00,
2013-02-04 13:55:00,28.7,21.5,29.68,ESE,116,2.0,6.0,74,0.01,,OVC029,0.01,VWS V14.01,2013-02-04 18:55:00,
2013-02-04 14:00:00,29.0,21.8,29.68,ESE,116,3.0,6.0,74,0.01,,OVC025,0.01,VWS V14.01,2013-02-04 19:00:00,
2013-02-04 14:06:00,29.3,21.7,29.68,ESE,116,2.0,6.0,73,0.01,,OVC025,0.01,VWS V14.01,2013-02-04 19:06:00,
2013-02-04 14:15:00,29.7,21.8,29.67,ESE,107,1.0,4.0,72,0.01,,OVC025,0.01,VWS V14.01,2013-02-04 19:15:00,
2013-02-04 14:20:00,29.8,21.9,29.67,ESE,107,0.0,3.0,72,0.01,,OVC025,0.01,VWS V14.01,2013-02-04 19:20:00,
2013-02-04 14:25:00,30.0,22.1,29.67,ESE,107,2.0,3.0,72,0.01,,OVC025,0.01,VWS V14.01,2013-02-04 19:25:00,
2013-02-04 14:30:00,30.1,22.2,29.68,ESE,107,2.0,3.0,72,0.01,,OVC025,0.01,VWS V14.01,2013-02-04 19:30:00,
2013-02-04 14:40:00,29.4,21.5,29.68,East,86,2.0,6.0,72,0.00,,OVC025,0.01,VWS V14.01,2013-02-04 19:40:00,
2013-02-04 14:50:00,30.0,22.7,29.68,East,86,2.0,3.0,74,0.00,,OVC025,0.01,VWS V14.01,2013-02-04 19:50:00,
2013-02-04 14:55:00,30.1,22.2,29.68,East,86,1.0,3.0,72,0.00,,OVC025,0.01,VWS V14.01,2013-02-04 19:55:00,
2013-02-04 15:00:00,30.3,22.4,29.67,East,85,1.0,5.0,72,0.00,,OVC025,0.01,VWS V14.01,2013-02-04 20:00:00,
2013-02-04 15:05:00,30.4,22.1,29.67,East,85,2.0,6.0,71,0.00,,OVC025,0.01,VWS V14.01,2013-02-04 20:05:00,
2013-02-04 15:10:00,29.8,21.9,29.67,ENE,73,3.0,5.0,72,0.00,,OVC025,0.01,VWS V14.01,2013-02-04 20:10:00,
2013-02-04 15:15:00,29.5,21.6,29.66,ENE,71,3.0,6.0,72,0.00,,OVC025,0.01,VWS V14.01,2013-02-04 20:15:00,
2013-02-04 15:20:00,29.3,21.7,29.66,ENE,71,4.0,6.0,73,0.00,,OVC025,0.01,VWS V14.01,2013-02-04 20:20:00,
2013-02-04 15:30:00,28.5,21.3,29.67,ENE,71,2.0,5.0,74,0.01,,OVC025,0.02,VWS V14.01,2013-02-04 20:30:00,
2013-02-04 15:35:00,28.4,21.5,29.67,ENE,65,3.0,6.0,75,0.01,,OVC025,0.02,VWS V14.01,2013-02-04 20:35:00,
2013-02-04 15:40:00,28.2,21.6,29.67,ENE,64,5.0,6.0,76,0.01,,OVC025,0.02,VWS V14.01,2013-02-04 20:40:00,
2013-02-04 15:45:00,28.2,21.9,29.67,ENE,61,5.0,6.0,77,0.01,,OVC025,0.02,VWS V14.01,2013-02-04 20:45:00,
2013-02-04 15:51:00,27.9,21.6,29.67,NE,55,3.0,6.0,77,0.01,,OVC025,0.02,VWS V14.01,2013-02-04 20:51:00,
2013-02-04 16:00:00,27.8,21.9,29.68,NE,54,3.0,6.0,78,0.01,,OVC021,0.02,VWS V14.01,2013-02-04 21:00:00,
2013-02-04 16:05:00,27.8,21.9,29.68,NE,56,5.0,6.0,78,0.01,,OVC021,0.02,VWS V14.01,2013-02-04 21:05:00,
2013-02-04 16:10:00,27.6,22.0,29.68,ENE,58,3.0,7.0,79,0.01,,OVC021,0.02,VWS V14.01,2013-02-04 21:10:00,
2013-02-04 16:15:00,27.6,22.0,29.69,ENE,61,2.0,5.0,79,0.01,,OVC021,0.02,VWS V14.01,2013-02-04 21:15:00,
2013-02-04 16:20:00,27.5,21.9,29.69,ENE,59,3.0,6.0,79,0.01,,OVC021,0.02,VWS V14.01,2013-02-04 21:20:00,
2013-02-04 16:25:00,27.3,21.7,29.69,NE,54,5.0,6.0,79,0.01,,OVC021,0.02,VWS V14.01,2013-02-04 21:25:00,
2013-02-04 16:31:00,27.2,21.6,29.68,NE,56,6.0,7.0,79,0.01,,OVC021,0.02,VWS V14.01,2013-02-04 21:31:00,
2013-02-04 16:40:00,27.3,22.0,29.68,NE,56,2.0,6.0,80,0.00,,OVC021,0.02,VWS V14.01,2013-02-04 21:40:00,
2013-02-04 16:45:00,27.3,21.7,29.69,NE,56,5.0,6.0,79,0.00,,OVC021,0.02,VWS V14.01,2013-02-04 21:45:00,
2013-02-04 16:50:00,27.2,21.6,29.69,NE,55,5.0,6.0,79,0.00,,OVC021,0.02,VWS V14.01,2013-02-04 21:50:00,
2013-02-04 16:55:00,27.2,21.6,29.69,NE,55,4.0,7.0,79,0.00,,OVC021,0.02,VWS V14.01,2013-02-04 21:55:00,
2013-02-04 17:05:00,27.0,21.7,29.69,ENE,58,4.0,7.0,80,0.00,,OVC016,0.02,VWS V14.01,2013-02-04 22:05:00,
2013-02-04 17:10:00,27.0,21.4,29.69,NE,56,7.0,8.0,79,0.00,,OVC016,0.02,VWS V14.01,2013-02-04 22:10:00,
2013-02-04 17:20:00,26.7,21.4,29.68,ENE,59,6.0,6.0,80,0.00,,OVC016,0.02,VWS V14.01,2013-02-04 22:20:00,
2013-02-04 17:25:00,26.7,21.4,29.68,ENE,59,3.0,6.0,80,0.00,,OVC016,0.02,VWS V14.01,2013-02-04 22:25:00,
2013-02-04 17:30:00,26.6,21.3,29.68,ENE,61,4.0,5.0,80,0.00,,OVC016,0.02,VWS V14.01,2013-02-04 22:30:00,
2013-02-04 17:40:00,26.6,21.3,29.68,ENE,68,5.0,7.0,80,0.00,,OVC016,0.02,VWS V14.01,2013-02-04 22:40:00,
2013-02-04 17:45:00,26.6,21.3,29.67,ENE,69,5.0,6.0,80,0.00,,OVC016,0.02,VWS V14.01,2013-02-04 22:45:00,
2013-02-04 17:50:00,26.6,21.3,29.67,ENE,69,2.0,7.0,80,0.00,,OVC016,0.02,VWS V14.01,2013-02-04 22:50:00,
2013-02-04 18:00:00,26.4,21.1,29.68,ENE,58,5.0,6.0,80,0.00,,OVC016,0.02,VWS V14.01,2013-02-04 23:00:00,
2013-02-04 18:10:00,26.1,20.8,29.68,NE,56,3.0,6.0,80,0.00,,OVC016,0.02,VWS V14.01,2013-02-04 23:10:00,
2013-02-04 18:15:00,26.1,20.8,29.68,NE,56,3.0,6.0,80,0.00,,OVC016,0.02,VWS V14.01,2013-02-04 23:15:00,
2013-02-04 18:20:00,26.1,20.8,29.68,NE,55,3.0,6.0,80,0.00,,OVC016,0.02,VWS V14.01,2013-02-04 23:20:00,
2013-02-04 18:26:00,26.0,20.7,29.68,NE,56,2.0,6.0,80,0.00,,OVC016,0.02,VWS V14.01,2013-02-04 23:26:00,
2013-02-04 18:35:00,26.1,21.1,29.69,ENE,58,5.0,5.0,81,0.00,,OVC016,0.02,VWS V14.01,2013-02-04 23:35:00,
2013-02-04 18:40:00,26.0,21.0,29.69,ENE,58,2.0,5.0,81,0.00,,OVC016,0.02,VWS V14.01,2013-02-04 23:40:00,
2013-02-04 18:45:00,26.0,21.0,29.70,ENE,58,4.0,5.0,81,0.00,,OVC016,0.02,VWS V14.01,2013-02-04 23:45:00,
2013-02-04 18:51:00,25.8,20.8,29.70,NE,56,5.0,5.0,81,0.00,,OVC016,0.02,VWS V14.01,2013-02-04 23:51:00,
2013-02-04 18:56:00,25.7,20.7,29.70,NNE,13,4.0,7.0,81,0.00,,OVC016,0.02,VWS V14.01,2013-02-04 23:56:00,
2013-02-04 19:06:00,25.6,20.6,29.72,North,10,3.0,7.0,81,0.00,,OVC020,0.02,VWS V14.01,2013-02-05 00:06:00,
2013-02-04 19:15:00,25.3,20.3,29.73,NNE,13,6.0,8.0,81,0.00,,OVC020,0.02,VWS V14.01,2013-02-05 00:15:00,
2013-02-04 19:20:00,25.3,20.3,29.73,North,10,7.0,10.0,81,0.00,,OVC020,0.02,VWS V14.01,2013-02-05 00:20:00,
2013-02-04 19:25:00,25.1,20.1,29.73,NNE,17,7.0,9.0,81,0.00,,OVC020,0.02,VWS V14.01,2013-02-05 00:25:00,
2013-02-04 19:30:00,25.1,20.1,29.74,North,4,6.0,8.0,81,0.00,,OVC020,0.02,VWS V14.01,2013-02-05 00:30:00,
2013-02-04 19:40:00,25.0,20.0,29.74,NNE,13,7.0,10.0,81,0.00,,OVC020,0.02,VWS V14.01,2013-02-05 00:40:00,
2013-02-04 19:45:00,24.8,19.8,29.75,North,1,7.0,8.0,81,0.00,,OVC020,0.02,VWS V14.01,2013-02-05 00:45:00,
2013-02-04 19:50:00,24.8,19.8,29.75,NNE,24,6.0,8.0,81,0.00,,OVC020,0.02,VWS V14.01,2013-02-05 00:50:00,
2013-02-04 19:56:00,24.8,19.8,29.75,NNE,30,6.0,7.0,81,0.00,,OVC020,0.02,VWS V14.01,2013-02-05 00:56:00,
2013-02-04 20:05:00,24.8,19.8,29.75,NNE,13,8.0,11.0,81,0.00,,OVC030,0.02,VWS V14.01,2013-02-05 01:05:00,
2013-02-04 20:10:00,24.7,19.7,29.75,NNE,32,7.0,11.0,81,0.00,,OVC030,0.02,VWS V14.01,2013-02-05 01:10:00,
2013-02-04 20:16:00,24.7,19.7,29.75,NNE,24,7.0,11.0,81,0.00,,OVC030,0.02,VWS V14.01,2013-02-05 01:16:00,
2013-02-04 20:25:00,24.5,19.8,29.75,NE,38,7.0,10.0,82,0.00,,OVC030,0.02,VWS V14.01,2013-02-05 01:25:00,
2013-02-04 20:30:00,24.4,19.7,29.76,NE,37,4.0,7.0,82,0.00,,OVC030,0.02,VWS V14.01,2013-02-05 01:30:00,
2013-02-04 20:35:00,24.4,19.7,29.76,NE,37,6.0,6.0,82,0.00,,OVC030,0.02,VWS V14.01,2013-02-05 01:35:00,
2013-02-04 20:41:00,24.4,19.7,29.76,NE,37,6.0,7.0,82,0.00,,OVC030,0.02,VWS V14.01,2013-02-05 01:41:00,
2013-02-04 20:50:00,24.4,19.7,29.76,NNE,16,6.0,8.0,82,0.00,,OVC030,0.02,VWS V14.01,2013-02-05 01:50:00,
2013-02-04 20:55:00,24.2,19.5,29.76,NNE,31,6.0,6.0,82,0.00,,OVC030,0.02,VWS V14.01,2013-02-05 01:55:00,
2013-02-04 21:00:00,24.1,19.4,29.77,NNE,24,5.0,6.0,82,0.00,,OVC031,0.02,VWS V14.01,2013-02-05 02:00:00,
2013-02-04 21:05:00,23.9,19.2,29.77,NNE,24,5.0,6.0,82,0.00,,OVC031,0.02,VWS V14.01,2013-02-05 02:05:00,
2013-02-04 21:11:00,23.8,19.1,29.77,NNE,24,3.0,5.0,82,0.00,,OVC031,0.02,VWS V14.01,2013-02-05 02:11:00,
2013-02-04 21:16:00,23.6,18.9,29.77,NNE,24,2.0,5.0,82,0.00,,OVC031,0.02,VWS V14.01,2013-02-05 02:16:00,
2013-02-04 21:25:00,23.3,18.9,29.77,NNE,24,5.0,6.0,83,0.00,,OVC031,0.02,VWS V14.01,2013-02-05 02:25:00,
2013-02-04 21:30:00,23.2,18.8,29.76,NNE,24,3.0,6.0,83,0.00,,OVC031,0.02,VWS V14.01,2013-02-05 02:30:00,
2013-02-04 21:35:00,22.7,18.0,29.76,NNE,24,3.0,6.0,82,0.00,,OVC031,0.02,VWS V14.01,2013-02-05 02:35:00,
2013-02-04 21:40:00,22.4,17.8,29.76,NNE,24,2.0,5.0,82,0.00,,OVC031,0.02,VWS V14.01,2013-02-05 02:40:00,
2013-02-04 21:46:00,22.2,17.8,29.76,NNE,24,2.0,3.0,83,0.00,,OVC031,0.02,VWS V14.01,2013-02-05 02:46:00,
2013-02-04 21:55:00,22.1,17.7,29.76,NNE,24,2.0,3.0,83,0.00,,OVC031,0.02,VWS V14.01,2013-02-05 02:55:00,
2013-02-04 22:00:00,22.1,18.0,29.76,NNE,24,1.0,2.0,84,0.00,,OVC026,0.02,VWS V14.01,2013-02-05 03:00:00,
2013-02-04 22:10:00,22.1,18.0,29.76,NNE,24,0.0,1.0,84,0.00,,OVC026,0.02,VWS V14.01,2013-02-05 03:10:00,
2013-02-04 22:15:00,22.1,18.0,29.76,NNE,24,0.0,0.0,84,0.00,,OVC026,0.02,VWS V14.01,2013-02-05 03:15:00,
2013-02-04 22:25:00,22.4,18.6,29.76,NNE,24,0.0,0.0,85,0.00,,OVC026,0.02,VWS V14.01,2013-02-05 03:25:00,
2013-02-04 22:30:00,22.5,18.7,29.76,NNE,24,0.0,0.0,85,0.00,,OVC026,0.02,VWS V14.01,2013-02-05 03:30:00,
2013-02-04 22:40:00,22.7,18.9,29.76,NNE,24,1.0,1.0,85,0.00,,OVC026,0.02,VWS V14.01,2013-02-05 03:40:00,
2013-02-04 22:45:00,22.7,18.9,29.78,NNE,24,0.0,1.0,85,0.00,,OVC026,0.02,VWS V14.01,2013-02-05 03:45:00,
2013-02-04 22:55:00,23.2,19.4,29.78,NNE,24,3.0,3.0,85,0.00,,OVC026,0.02,VWS V14.01,2013-02-05 03:55:00,
2013-02-04 23:00:00,23.2,19.4,29.78,NNE,24,2.0,5.0,85,0.00,,OVC032,0.02,VWS V14.01,2013-02-05 04:00:00,
2013-02-04 23:05:00,23.2,19.4,29.78,NNE,24,0.0,3.0,85,0.00,,OVC032,0.02,VWS V14.01,2013-02-05 04:05:00,
2013-02-04 23:10:00,23.0,18.9,29.78,NNE,24,1.0,2.0,84,0.00,,OVC032,0.02,VWS V14.01,2013-02-05 04:10:00,
2013-02-04 23:15:00,22.9,18.8,29.77,NNE,24,1.0,2.0,84,0.00,,OVC032,0.02,VWS V14.01,2013-02-05 04:15:00,
2013-02-04 23:20:00,23.0,19.2,29.77,NNE,24,1.0,2.0,85,0.00,,OVC032,0.02,VWS V14.01,2013-02-05 04:20:00,
2013-02-04 23:25:00,23.0,19.2,29.77,NNE,24,0.0,2.0,85,0.00,,OVC032,0.02,VWS V14.01,2013-02-05 04:25:00,
2013-02-04 23:30:00,23.2,19.4,29.77,NNE,24,0.0,1.0,85,0.00,,OVC032,0.02,VWS V14.01,2013-02-05 04:30:00,
2013-02-04 23:35:00,23.3,19.5,29.77,NNE,24,0.0,0.0,85,0.00,,OVC032,0.02,VWS V14.01,2013-02-05 04:35:00,
2013-02-04 23:40:00,23.3,19.5,29.77,NNE,24,0.0,1.0,85,0.00,,OVC032,0.02,VWS V14.01,2013-02-05 04:40:00,
2013-02-04 23:45:00,23.3,19.5,29.76,NNE,24,0.0,1.0,85,0.00,,OVC032,0.02,VWS V14.01,2013-02-05 04:45:00,
2013-02-04 23:50:00,23.5,19.7,29.76,NNE,24,0.0,1.0,85,0.00,,OVC032,0.02,VWS V14.01,2013-02-05 04:50:00,
2013-02-04 23:55:00,23.5,19.7,29.76,NNE,24,0.0,1.0,85,0.00,,OVC032,0.02,VWS V14.01,2013-02-05 04:55:00,